createdAt,value
2023-01-26T00:00:10.355Z,49.83
2023-01-26T00:02:41.576Z,44.87
2023-01-26T00:05:10.457Z,49.40
2023-01-26T00:07:42.719Z,49.07
2023-01-26T00:10:12.434Z,47.10
2023-01-26T00:12:40.980Z,48.53
2023-01-26T00:15:09.824Z,47.77
2023-01-26T00:17:38.467Z,46.60
2023-01-26T00:20:10.020Z,47.47
2023-01-26T00:22:38.685Z,48.77
2023-01-26T00:25:07.834Z,49.53
2023-01-26T00:27:36.297Z,47.80
2023-01-26T00:30:05.464Z,47.37
2023-01-26T00:32:35.866Z,47.70
2023-01-26T00:35:04.572Z,48.93
2023-01-26T00:37:34.739Z,50.77
2023-01-26T00:40:03.270Z,48.93
2023-01-26T00:42:31.706Z,48.83
2023-01-26T00:45:00.184Z,48.77
2023-01-26T00:47:28.562Z,46.07
2023-01-26T00:49:57.112Z,50.07
2023-01-26T00:52:25.481Z,51.23
2023-01-26T00:54:55.406Z,44.60
2023-01-26T00:57:23.937Z,48.20
2023-01-26T00:59:52.426Z,45.73
2023-01-26T01:02:21.285Z,47.10
2023-01-26T01:04:49.635Z,46.97
2023-01-26T01:07:18.033Z,42.53
2023-01-26T01:09:47.040Z,43.93
2023-01-26T01:12:16.910Z,41.33
2023-01-26T01:14:45.418Z,41.00
2023-01-26T01:17:13.737Z,40.50
2023-01-26T01:19:42.413Z,40.13
2023-01-26T01:22:11.259Z,41.70
2023-01-26T01:24:39.771Z,39.30
2023-01-26T01:27:08.188Z,38.33
2023-01-26T01:29:38.290Z,38.43
2023-01-26T01:32:06.877Z,37.93
2023-01-26T01:34:35.449Z,38.63
2023-01-26T01:37:03.760Z,37.57
2023-01-26T01:39:32.259Z,41.77
2023-01-26T01:42:00.629Z,38.47
2023-01-26T01:44:29.044Z,41.13
2023-01-26T01:47:01.270Z,38.80
2023-01-26T01:49:33.435Z,38.33
2023-01-26T01:52:06.953Z,41.10
2023-01-26T01:54:39.553Z,39.87
2023-01-26T01:57:15.684Z,39.03
2023-01-26T01:59:45.928Z,41.23
2023-01-26T02:02:16.232Z,39.40
2023-01-26T02:04:44.979Z,40.50
2023-01-26T02:07:13.701Z,40.23
2023-01-26T02:10:00.812Z,37.83
2023-01-26T02:12:32.218Z,40.97
2023-01-26T02:15:01.813Z,41.60
2023-01-26T02:17:31.734Z,39.77
2023-01-26T02:20:06.349Z,41.63
2023-01-26T02:22:42.913Z,41.17
2023-01-26T02:25:20.596Z,41.97
2023-01-26T02:27:50.724Z,40.77
2023-01-26T02:30:19.343Z,42.30
2023-01-26T02:32:48.349Z,41.27
2023-01-26T02:35:16.835Z,42.80
2023-01-26T02:37:45.278Z,41.43
2023-01-26T02:40:25.016Z,43.27
2023-01-26T02:42:55.443Z,43.50
2023-01-26T02:45:25.031Z,42.03
2023-01-26T02:47:53.779Z,41.40
2023-01-26T02:50:21.380Z,41.87
2023-01-26T02:52:49.708Z,41.43
2023-01-26T02:55:25.079Z,40.93
2023-01-26T02:57:56.292Z,42.40
2023-01-26T03:00:26.521Z,43.47
2023-01-26T03:02:57.081Z,43.17
2023-01-26T03:05:25.546Z,40.53
2023-01-26T03:07:54.000Z,42.93
2023-01-26T03:10:24.271Z,44.03
2023-01-26T03:12:54.671Z,41.67
2023-01-26T03:15:40.702Z,43.20
2023-01-26T03:18:30.072Z,41.87
2023-01-26T03:21:18.006Z,44.73
2023-01-26T03:24:04.193Z,42.23
2023-01-26T03:26:50.390Z,43.87
2023-01-26T03:29:20.302Z,43.17
2023-01-26T03:31:48.813Z,45.13
2023-01-26T03:34:17.260Z,41.67
2023-01-26T03:36:45.603Z,43.80
2023-01-26T03:39:34.411Z,42.10
2023-01-26T03:42:21.030Z,40.60
2023-01-26T03:45:08.952Z,42.73
2023-01-26T03:47:55.350Z,43.83
2023-01-26T03:50:41.708Z,42.53
2023-01-26T03:53:34.869Z,45.13
2023-01-26T03:56:21.876Z,43.80
2023-01-26T03:58:52.661Z,40.77
2023-01-26T04:01:27.819Z,41.10
2023-01-26T04:04:15.004Z,41.60
2023-01-26T04:07:03.410Z,40.80
2023-01-26T04:09:32.484Z,41.27
2023-01-26T04:12:02.421Z,42.37
2023-01-26T04:14:49.677Z,42.97
2023-01-26T04:17:38.930Z,40.97
2023-01-26T04:20:25.801Z,41.17
2023-01-26T04:22:54.407Z,41.20
2023-01-26T04:25:23.794Z,43.30
2023-01-26T04:27:52.494Z,41.10
2023-01-26T04:30:21.211Z,39.63
2023-01-26T04:32:52.525Z,40.17
2023-01-26T04:35:20.967Z,38.60
2023-01-26T04:37:49.697Z,43.40
2023-01-26T04:40:18.276Z,39.73
2023-01-26T04:42:46.765Z,40.17
2023-01-26T04:45:15.229Z,42.67
2023-01-26T04:47:43.620Z,42.23
2023-01-26T04:50:13.835Z,38.27
2023-01-26T04:52:42.532Z,37.23
2023-01-26T04:55:11.397Z,41.27
2023-01-26T04:57:40.297Z,40.13
2023-01-26T05:00:11.154Z,39.60
2023-01-26T05:02:40.407Z,39.93
2023-01-26T05:05:09.622Z,42.43
2023-01-26T05:07:39.389Z,38.20
2023-01-26T05:10:10.025Z,40.53
2023-01-26T05:12:42.838Z,41.17
2023-01-26T05:15:11.772Z,41.57
2023-01-26T05:17:40.472Z,41.10
2023-01-26T05:20:10.578Z,39.30
2023-01-26T05:22:40.554Z,41.73
2023-01-26T05:25:09.808Z,42.57
2023-01-26T05:27:38.231Z,40.37
2023-01-26T05:30:07.486Z,39.03
2023-01-26T05:32:36.430Z,39.67
2023-01-26T05:35:05.710Z,40.77
2023-01-26T05:37:34.846Z,39.60
2023-01-26T05:40:05.320Z,41.17
2023-01-26T05:42:35.002Z,29.90
2023-01-26T05:45:04.600Z,37.60
2023-01-26T05:47:33.046Z,41.50
2023-01-26T05:50:02.169Z,45.50
2023-01-26T05:52:30.640Z,44.23
2023-01-26T05:54:59.504Z,40.50
2023-01-26T05:57:29.933Z,44.67
2023-01-26T05:59:58.332Z,44.90
2023-01-26T06:02:28.080Z,40.97
2023-01-26T06:04:56.680Z,40.50
2023-01-26T06:07:26.399Z,39.90
2023-01-26T06:09:55.027Z,43.07
2023-01-26T06:12:23.780Z,40.23
2023-01-26T06:14:53.483Z,40.13
2023-01-26T06:17:22.344Z,43.47
2023-01-26T06:19:50.675Z,44.40
2023-01-26T06:22:19.069Z,43.17
2023-01-26T06:24:47.707Z,39.77
2023-01-26T06:27:17.524Z,42.73
2023-01-26T06:29:46.203Z,41.53
2023-01-26T06:32:16.583Z,42.13
2023-01-26T06:34:45.020Z,41.57
2023-01-26T06:37:14.059Z,40.60
2023-01-26T06:39:42.753Z,42.37
2023-01-26T06:42:13.076Z,44.40
2023-01-26T06:44:41.505Z,33.07
2023-01-26T06:47:09.876Z,33.03
2023-01-26T06:49:39.631Z,29.77
2023-01-26T06:52:27.935Z,32.43
2023-01-26T06:54:59.656Z,38.73
2023-01-26T06:57:29.044Z,39.50
2023-01-26T06:59:58.036Z,30.83
2023-01-26T07:02:26.457Z,39.30
2023-01-26T07:04:56.576Z,33.17
2023-01-26T07:07:24.981Z,31.53
2023-01-26T07:09:53.348Z,41.90
2023-01-26T07:12:21.760Z,26.70
2023-01-26T07:14:51.431Z,27.57
2023-01-26T07:17:19.891Z,31.13
2023-01-26T07:19:48.455Z,26.03
2023-01-26T07:22:18.340Z,31.43
2023-01-26T07:24:46.827Z,23.47
2023-01-26T07:27:15.227Z,24.10
2023-01-26T07:29:43.672Z,25.17
2023-01-26T07:32:12.064Z,22.90
2023-01-26T07:34:40.459Z,25.77
2023-01-26T07:37:10.673Z,19.23
2023-01-26T07:39:40.361Z,16.57
2023-01-26T07:42:10.721Z,21.40
2023-01-26T07:44:39.080Z,19.40
2023-01-26T07:47:07.553Z,13.60
2023-01-26T07:49:35.934Z,22.10
2023-01-26T07:52:06.260Z,18.97
2023-01-26T07:54:34.635Z,19.43
2023-01-26T07:57:06.993Z,19.93
2023-01-26T07:59:35.701Z,18.47
2023-01-26T08:02:04.658Z,16.97
2023-01-26T08:04:33.222Z,13.80
2023-01-26T08:07:02.563Z,20.70
2023-01-26T08:09:31.122Z,17.70
2023-01-26T08:11:59.620Z,15.40
2023-01-26T08:14:41.663Z,14.73
2023-01-26T08:17:13.680Z,16.07
2023-01-26T08:19:42.005Z,16.00
2023-01-26T08:22:10.480Z,14.77
2023-01-26T08:24:38.933Z,13.37
2023-01-26T08:27:07.443Z,11.50
2023-01-26T08:29:37.532Z,9.97
2023-01-26T08:32:06.091Z,11.43
2023-01-26T08:34:34.458Z,6.53
2023-01-26T08:37:03.227Z,9.60
2023-01-26T08:39:31.664Z,8.27
2023-01-26T08:42:00.066Z,7.57
2023-01-26T08:44:28.445Z,6.07
2023-01-26T08:46:58.184Z,6.43
2023-01-26T08:49:26.708Z,5.90
2023-01-26T08:51:55.081Z,4.87
2023-01-26T08:54:23.649Z,3.90
2023-01-26T08:56:53.429Z,3.50
2023-01-26T08:59:21.912Z,2.50
2023-01-26T09:01:51.362Z,2.90
2023-01-26T09:04:21.222Z,2.37
2023-01-26T09:06:49.772Z,1.40
2023-01-26T09:09:18.058Z,2.37
2023-01-26T09:11:46.436Z,1.70
2023-01-26T09:14:14.966Z,1.70
2023-01-26T09:16:43.413Z,1.50
2023-01-26T09:19:13.147Z,1.87
2023-01-26T09:21:43.018Z,1.43
2023-01-26T09:24:11.488Z,2.67
2023-01-26T09:26:40.341Z,1.73
2023-01-26T09:29:08.907Z,0.60
2023-01-26T09:31:37.457Z,2.20
2023-01-26T09:34:05.808Z,0.80
2023-01-26T09:36:34.628Z,2.77
2023-01-26T09:39:04.417Z,1.30
2023-01-26T09:42:01.563Z,2.13
2023-01-26T09:44:34.668Z,0.87
2023-01-26T09:47:32.339Z,1.53
2023-01-26T09:50:05.741Z,1.17
2023-01-26T09:52:36.855Z,3.70
2023-01-26T09:55:15.657Z,0.90
2023-01-26T09:57:50.510Z,1.37
2023-01-26T10:00:23.154Z,1.10
2023-01-26T10:03:02.631Z,1.10
2023-01-26T10:05:41.158Z,0.90
2023-01-26T10:08:14.245Z,1.33
2023-01-26T10:10:48.164Z,1.10
2023-01-26T10:13:18.047Z,1.03
2023-01-26T10:15:50.566Z,1.27
2023-01-26T10:18:23.401Z,1.60
2023-01-26T10:20:55.177Z,1.57
2023-01-26T10:23:26.778Z,1.20
2023-01-26T10:26:03.103Z,1.40
2023-01-26T10:28:35.191Z,1.07
2023-01-26T10:31:05.544Z,2.10
2023-01-26T10:33:36.372Z,1.53
2023-01-26T10:36:07.364Z,1.23
2023-01-26T10:38:44.020Z,1.47
2023-01-26T10:41:30.295Z,0.40
2023-01-26T10:44:00.699Z,0.80
2023-01-26T10:46:32.037Z,0.60
2023-01-26T10:49:02.596Z,0.70
2023-01-26T10:51:33.122Z,1.63
2023-01-26T10:54:22.739Z,1.47
2023-01-26T10:56:55.674Z,3.13
2023-01-26T10:59:36.202Z,1.77
2023-01-26T11:02:23.451Z,1.37
2023-01-26T11:05:15.250Z,1.63
2023-01-26T11:07:45.748Z,1.10
2023-01-26T11:10:21.196Z,2.00
2023-01-26T11:12:51.853Z,1.47
2023-01-26T11:15:22.176Z,1.17
2023-01-26T11:17:57.993Z,1.83
2023-01-26T11:20:57.522Z,1.50
2023-01-26T11:23:44.325Z,1.17
2023-01-26T11:26:48.591Z,1.20
2023-01-26T11:29:39.395Z,0.97
2023-01-26T11:32:17.119Z,0.77
2023-01-26T11:34:52.348Z,1.07
2023-01-26T11:37:43.894Z,0.70
2023-01-26T11:40:29.293Z,1.23
2023-01-26T11:43:15.129Z,1.00
2023-01-26T11:46:05.376Z,1.20
2023-01-26T11:48:45.476Z,0.97
2023-01-26T12:37:27.925Z,0.98
2023-01-26T12:40:02.782Z,0.80
2023-01-26T12:43:09.480Z,1.93
2023-01-26T12:45:41.745Z,0.85
2023-01-26T12:48:16.021Z,1.50
2023-01-26T12:50:48.879Z,0.80
2023-01-26T12:53:24.577Z,1.00
2023-01-26T12:55:56.992Z,0.70
2023-01-26T12:58:28.954Z,0.87
2023-01-26T13:01:03.656Z,1.00
2023-01-26T13:03:38.611Z,1.53
2023-01-26T13:06:21.106Z,1.27
2023-01-26T13:09:00.648Z,0.73
2023-01-26T13:11:50.952Z,1.20
2023-01-26T13:14:38.919Z,1.00
2023-01-26T13:17:50.051Z,0.88
2023-01-26T13:20:50.996Z,1.08
2023-01-26T13:23:46.760Z,0.63
2023-01-26T13:26:51.589Z,0.90
2023-01-26T13:29:35.585Z,0.63
2023-01-26T13:32:58.132Z,0.82
2023-01-26T13:35:28.069Z,1.10
2023-01-26T13:38:03.789Z,0.50
2023-01-26T13:40:35.163Z,1.30
2023-01-26T13:43:25.845Z,0.40
2023-01-26T13:46:09.169Z,0.45
2023-01-26T13:48:44.134Z,0.65
2023-01-26T13:51:17.243Z,0.70
2023-01-26T13:53:50.233Z,1.20
2023-01-26T13:56:27.648Z,0.40
2023-01-26T13:59:08.835Z,0.63
2023-01-26T14:01:43.397Z,0.60
2023-01-26T14:04:15.779Z,0.70
2023-01-26T14:06:49.909Z,0.40
2023-01-26T14:09:18.806Z,0.20
2023-01-26T14:11:54.944Z,0.90
2023-01-26T14:14:28.696Z,0.50
2023-01-26T14:17:00.061Z,1.20
2023-01-26T14:19:29.625Z,0.50
2023-01-26T14:22:00.187Z,0.50
2023-01-26T14:24:33.960Z,0.40
2023-01-26T14:27:04.020Z,0.33
2023-01-26T14:29:39.567Z,0.30
2023-01-26T14:32:17.250Z,1.27
2023-01-26T14:34:53.634Z,0.30
2023-01-26T14:37:22.025Z,0.70
2023-01-26T14:39:50.361Z,0.17
2023-01-26T14:42:20.999Z,0.63
2023-01-26T14:44:50.706Z,0.70
2023-01-26T14:47:22.397Z,0.47
2023-01-26T14:49:56.296Z,0.83
2023-01-26T14:52:27.103Z,0.73
2023-01-26T14:54:57.378Z,0.40
2023-01-26T14:57:28.358Z,0.60
2023-01-26T15:00:00.854Z,0.30
2023-01-26T15:02:37.503Z,0.40
2023-01-26T15:05:14.391Z,0.80
2023-01-26T15:07:44.992Z,0.88
2023-01-26T15:10:37.043Z,0.65
2023-01-26T15:13:19.545Z,0.70
2023-01-26T15:16:02.895Z,0.40
2023-01-26T15:18:33.175Z,0.32
2023-01-26T15:21:10.968Z,0.82
2023-01-26T15:23:43.514Z,0.67
2023-01-26T15:26:15.634Z,0.50
2023-01-26T15:28:44.032Z,1.63
2023-01-26T15:31:22.490Z,1.13
2023-01-26T15:33:52.688Z,0.80
2023-01-26T15:36:33.548Z,0.75
2023-01-26T15:39:12.885Z,0.63
2023-01-26T15:41:41.829Z,0.70
2023-01-26T15:44:16.510Z,0.40
2023-01-26T15:46:47.006Z,0.77
2023-01-26T15:49:18.386Z,0.57
2023-01-26T15:51:46.940Z,0.43
2023-01-26T15:54:15.248Z,0.67
2023-01-26T15:56:43.751Z,1.53
2023-01-26T15:59:12.137Z,0.40
2023-01-26T16:01:40.959Z,1.03
2023-01-26T16:04:13.966Z,0.25
2023-01-26T16:06:42.725Z,0.40
2023-01-26T16:09:11.110Z,0.30
2023-01-26T16:11:47.552Z,0.70
2023-01-26T16:14:16.443Z,0.20
2023-01-26T16:16:44.963Z,1.23
2023-01-26T16:19:34.495Z,0.37
2023-01-26T16:22:04.158Z,0.93
2023-01-26T16:24:32.602Z,0.30
2023-01-26T16:27:00.939Z,0.10
2023-01-26T16:29:29.360Z,0.27
2023-01-26T16:31:57.839Z,1.00
2023-01-26T16:34:28.131Z,0.40
2023-01-26T16:36:56.770Z,0.30
2023-01-26T16:39:25.173Z,0.63
2023-01-26T16:41:53.689Z,0.50
2023-01-26T16:44:23.090Z,0.30
2023-01-26T16:46:51.555Z,0.20
2023-01-26T16:49:19.911Z,0.30
2023-01-26T16:51:49.706Z,0.60
2023-01-26T16:54:18.173Z,0.30
2023-01-26T16:56:46.598Z,0.27
2023-01-26T16:59:14.919Z,0.20
2023-01-26T17:01:43.647Z,0.10
2023-01-26T17:04:12.395Z,0.27
2023-01-26T17:06:41.014Z,0.20
2023-01-26T17:09:10.941Z,0.60
2023-01-26T17:11:39.302Z,0.10
2023-01-26T17:14:07.719Z,0.37
2023-01-26T17:16:37.059Z,0.10
2023-01-26T17:19:07.300Z,0.10
2023-01-26T17:21:37.465Z,0.20
2023-01-26T17:24:06.984Z,0.27
2023-01-26T17:26:36.754Z,0.30
2023-01-26T17:29:05.488Z,0.60
2023-01-26T17:31:34.407Z,0.50
2023-01-26T17:34:03.966Z,0.23
2023-01-26T17:36:32.435Z,0.10
2023-01-26T17:39:00.835Z,0.50
2023-01-26T17:41:29.780Z,0.40
2023-01-26T17:43:59.448Z,0.30
2023-01-26T17:46:27.778Z,0.30
2023-01-26T17:48:56.359Z,0.20
2023-01-26T17:51:24.748Z,0.47
2023-01-26T17:53:54.296Z,0.43
2023-01-26T17:56:23.598Z,0.50
2023-01-26T17:58:53.875Z,0.30
2023-01-26T18:01:25.482Z,0.40
2023-01-26T18:03:54.646Z,0.40
2023-01-26T18:06:23.074Z,0.50
2023-01-26T18:08:51.485Z,0.30
2023-01-26T18:11:19.867Z,0.40
2023-01-26T18:13:48.729Z,0.47
2023-01-26T18:16:19.728Z,0.30
2023-01-26T18:18:49.652Z,0.20
2023-01-26T18:21:20.226Z,0.60
2023-01-26T18:23:50.659Z,1.53
2023-01-26T18:26:20.281Z,1.03
2023-01-26T18:28:49.428Z,0.47
2023-01-26T18:31:19.658Z,0.97
2023-01-26T18:33:49.615Z,0.40
2023-01-26T18:36:20.208Z,0.70
2023-01-26T18:38:51.492Z,0.60
2023-01-26T18:41:21.504Z,0.30
2023-01-26T18:43:52.295Z,1.20
2023-01-26T18:46:21.113Z,0.50
2023-01-26T18:48:52.867Z,0.20
2023-01-26T18:51:22.627Z,1.07
2023-01-26T18:53:51.058Z,0.30
2023-01-26T18:56:19.650Z,0.97
2023-01-26T18:58:48.066Z,1.07
2023-01-26T19:01:18.709Z,0.43
2023-01-26T19:03:54.983Z,0.67
2023-01-26T19:06:26.151Z,1.40
2023-01-26T19:08:58.674Z,0.50
2023-01-26T19:11:28.688Z,0.63
2023-01-26T19:13:57.046Z,0.80
2023-01-26T19:16:25.988Z,0.63
2023-01-26T19:18:55.501Z,0.50
2023-01-26T19:21:26.064Z,0.50
2023-01-26T19:23:56.678Z,0.33
2023-01-26T19:26:27.953Z,0.60
2023-01-26T19:28:56.482Z,1.03
2023-01-26T19:31:26.459Z,1.03
2023-01-26T19:33:56.577Z,0.40
2023-01-26T19:36:27.516Z,0.63
2023-01-26T19:38:56.052Z,0.30
2023-01-26T19:41:25.820Z,0.47
2023-01-26T19:43:54.473Z,0.30
2023-01-26T19:46:23.125Z,0.67
2023-01-26T19:48:51.546Z,0.50
2023-01-26T19:51:21.630Z,0.70
2023-01-26T19:53:53.106Z,0.50
2023-01-26T19:56:23.100Z,0.50
2023-01-26T19:58:52.411Z,0.50
2023-01-26T20:01:21.615Z,0.60
2023-01-26T20:03:51.065Z,0.60
2023-01-26T20:06:21.913Z,0.40
2023-01-26T20:08:51.728Z,0.33
2023-01-26T20:11:24.900Z,0.33
2023-01-26T20:13:56.307Z,0.67
2023-01-26T20:16:28.034Z,0.27
2023-01-26T20:18:57.015Z,0.40
2023-01-26T20:21:25.861Z,0.60
2023-01-26T20:23:56.402Z,0.37
2023-01-26T20:26:26.279Z,0.40
2023-01-26T20:28:58.139Z,0.30
2023-01-26T20:31:27.837Z,0.80
2023-01-26T20:33:56.542Z,0.47
2023-01-26T20:36:27.241Z,0.60
2023-01-26T20:38:57.288Z,0.47
2023-01-26T20:41:27.544Z,0.50
2023-01-26T20:44:01.205Z,0.47
2023-01-26T20:46:32.303Z,0.83
2023-01-26T20:49:00.956Z,0.70
2023-01-26T20:51:33.893Z,0.30
2023-01-26T20:54:06.281Z,0.40
2023-01-26T20:56:35.611Z,0.40
2023-01-26T20:59:04.977Z,0.60
2023-01-26T21:01:35.023Z,0.40
2023-01-26T21:04:05.358Z,0.30
2023-01-26T21:06:34.143Z,1.80
2023-01-26T21:09:05.669Z,0.90
2023-01-26T21:11:34.593Z,0.80
2023-01-26T21:14:04.341Z,0.37
2023-01-26T21:16:35.666Z,0.40
2023-01-26T21:19:05.539Z,0.27
2023-01-26T21:21:34.193Z,0.90
2023-01-26T21:24:04.945Z,0.20
2023-01-26T21:26:34.806Z,0.30
2023-01-26T21:29:03.686Z,0.20
2023-01-26T21:31:34.297Z,0.60
2023-01-26T21:34:03.729Z,0.70
2023-01-26T21:36:34.248Z,0.50
2023-01-26T21:39:04.870Z,0.27
2023-01-26T21:41:52.181Z,0.40
2023-01-26T21:44:22.591Z,1.13
2023-01-26T21:46:52.838Z,0.30
2023-01-26T21:49:21.392Z,0.40
2023-01-26T21:52:07.563Z,0.50
2023-01-26T21:54:37.571Z,0.40
2023-01-26T21:57:28.833Z,0.30
2023-01-26T21:59:56.577Z,0.70
2023-01-26T22:02:25.245Z,0.53
2023-01-26T22:04:54.285Z,0.40
2023-01-26T22:07:23.297Z,0.60
2023-01-26T22:09:53.138Z,0.25
2023-01-26T22:12:23.001Z,0.37
2023-01-26T22:14:52.224Z,0.40
2023-01-26T22:17:21.670Z,0.33
2023-01-26T22:19:50.072Z,0.50
2023-01-26T22:22:18.378Z,0.35
2023-01-26T22:24:46.813Z,0.50
2023-01-26T22:27:16.571Z,0.83
2023-01-26T22:29:44.861Z,0.53
2023-01-26T22:32:14.019Z,0.53
2023-01-26T22:34:42.348Z,0.53
2023-01-26T22:37:10.708Z,0.43
2023-01-26T22:39:39.237Z,0.90
2023-01-26T22:42:07.587Z,1.47
2023-01-26T22:44:37.438Z,1.73
2023-01-26T22:47:06.055Z,1.07
2023-01-26T22:49:34.408Z,0.47
2023-01-26T22:52:06.627Z,1.13
2023-01-26T22:54:35.478Z,0.20
2023-01-26T22:57:04.480Z,0.63
2023-01-26T22:59:32.792Z,0.50
2023-01-26T23:02:02.699Z,0.50
2023-01-26T23:04:31.063Z,0.30
2023-01-26T23:06:59.625Z,0.40
2023-01-26T23:09:29.012Z,0.60
2023-01-26T23:11:57.316Z,0.30
2023-01-26T23:14:25.777Z,0.50
2023-01-26T23:16:54.324Z,0.50
2023-01-26T23:19:24.582Z,0.83
2023-01-26T23:21:55.324Z,0.30
2023-01-26T23:24:23.825Z,0.30
2023-01-26T23:26:52.231Z,0.70
2023-01-26T23:29:20.592Z,0.50
2023-01-26T23:31:49.043Z,0.37
2023-01-26T23:34:17.432Z,0.50
2023-01-26T23:36:47.161Z,0.40
2023-01-26T23:39:15.632Z,0.93
2023-01-26T23:41:43.984Z,0.20
2023-01-26T23:44:13.179Z,0.30
2023-01-26T23:46:41.723Z,0.50
2023-01-26T23:49:10.209Z,0.40
2023-01-26T23:51:38.726Z,0.50
2023-01-26T23:54:08.765Z,0.60
2023-01-26T23:56:37.097Z,0.47
2023-01-26T23:59:05.457Z,0.27
